createdAt,value
2023-03-26T00:00:54.264Z,11.50
2023-03-26T00:03:23.616Z,11.50
2023-03-26T00:06:03.264Z,11.40
2023-03-26T00:08:31.868Z,11.40
2023-03-26T00:11:01.124Z,11.50
2023-03-26T00:13:29.318Z,11.60
2023-03-26T00:15:57.457Z,11.70
2023-03-26T00:18:30.635Z,11.80
2023-03-26T00:20:58.885Z,11.90
2023-03-26T00:23:27.035Z,11.90
2023-03-26T00:25:56.173Z,11.90
2023-03-26T00:28:24.772Z,11.90
2023-03-26T00:30:58.786Z,11.80
2023-03-26T00:33:28.572Z,11.80
2023-03-26T00:35:58.970Z,11.70
2023-03-26T00:38:28.120Z,11.70
2023-03-26T00:41:05.940Z,11.60
2023-03-26T00:43:35.061Z,11.60
2023-03-26T00:46:03.906Z,11.70
2023-03-26T00:48:44.581Z,11.80
2023-03-26T00:51:15.449Z,11.80
2023-03-26T00:53:44.341Z,11.50
2023-03-26T00:56:12.868Z,11.50
2023-03-26T00:58:41.336Z,11.60
2023-03-26T01:01:10.281Z,11.70
2023-03-26T01:03:39.702Z,11.80
2023-03-26T01:06:09.401Z,11.70
2023-03-26T01:08:39.181Z,11.50
2023-03-26T01:11:14.296Z,11.60
2023-03-26T01:13:45.884Z,11.50
2023-03-26T01:16:20.443Z,11.50
2023-03-26T01:18:50.262Z,11.60
2023-03-26T01:21:22.603Z,11.70
2023-03-26T01:23:59.719Z,11.70
2023-03-26T01:26:34.865Z,11.70
2023-03-26T01:29:04.002Z,11.80
2023-03-26T01:31:36.969Z,11.80
2023-03-26T01:34:12.273Z,11.80
2023-03-26T01:36:42.962Z,11.80
2023-03-26T01:39:18.554Z,11.90
2023-03-26T01:41:48.254Z,12.00
2023-03-26T01:44:20.056Z,12.10
2023-03-26T01:46:48.738Z,12.00
2023-03-26T01:49:18.793Z,12.00
2023-03-26T01:51:47.630Z,11.90
2023-03-26T01:54:19.642Z,12.00
2023-03-26T01:56:56.934Z,11.90
2023-03-26T01:59:31.612Z,11.90
2023-03-26T02:02:01.976Z,11.90
2023-03-26T02:04:32.377Z,11.90
2023-03-26T02:07:05.625Z,11.90
2023-03-26T02:09:37.005Z,11.90
2023-03-26T02:12:05.461Z,11.90
2023-03-26T02:14:34.301Z,11.90
2023-03-26T02:17:03.227Z,11.90
2023-03-26T02:19:31.818Z,11.90
2023-03-26T02:22:00.863Z,11.80
2023-03-26T02:24:35.201Z,11.80
2023-03-26T02:27:07.738Z,11.60
2023-03-26T02:29:37.859Z,11.60
2023-03-26T02:32:06.544Z,11.70
2023-03-26T02:34:34.839Z,11.70
2023-03-26T02:37:02.968Z,11.70
2023-03-26T02:39:30.914Z,11.80
2023-03-26T02:42:05.447Z,11.90
2023-03-26T02:44:40.243Z,12.00
2023-03-26T02:47:20.176Z,12.00
2023-03-26T02:49:54.288Z,12.10
2023-03-26T02:52:43.041Z,12.10
2023-03-26T02:55:11.944Z,12.00
2023-03-26T02:57:43.308Z,11.90
2023-03-26T03:00:22.653Z,11.80
2023-03-26T03:02:52.965Z,11.80
2023-03-26T03:05:33.509Z,11.90
2023-03-26T03:08:18.477Z,11.80
2023-03-26T03:11:21.919Z,11.90
2023-03-26T03:13:52.469Z,11.90
2023-03-26T03:16:24.199Z,11.80
2023-03-26T03:18:57.430Z,11.80
2023-03-26T03:21:30.229Z,11.90
2023-03-26T03:23:59.968Z,12.00
2023-03-26T03:26:31.766Z,12.00
2023-03-26T03:29:12.124Z,12.00
2023-03-26T03:31:41.273Z,12.00
2023-03-26T03:34:18.361Z,12.00
2023-03-26T03:36:51.485Z,12.00
2023-03-26T03:39:32.637Z,12.10
2023-03-26T03:42:00.758Z,12.10
2023-03-26T03:44:30.831Z,12.00
2023-03-26T03:46:59.800Z,11.90
2023-03-26T03:49:27.992Z,11.70
2023-03-26T03:51:59.289Z,11.70
2023-03-26T03:54:36.908Z,11.60
2023-03-26T03:57:35.947Z,11.70
2023-03-26T04:00:09.918Z,11.60
2023-03-26T04:02:46.232Z,11.60
2023-03-26T04:05:15.888Z,11.60
2023-03-26T04:07:48.124Z,11.60
2023-03-26T04:10:28.080Z,11.50
2023-03-26T04:13:14.875Z,11.60
2023-03-26T04:16:02.979Z,11.70
2023-03-26T04:18:32.418Z,11.70
2023-03-26T04:21:07.442Z,11.70
2023-03-26T04:23:35.749Z,11.70
2023-03-26T04:26:30.839Z,11.70
2023-03-26T04:29:06.281Z,11.60
2023-03-26T04:31:38.911Z,11.60
2023-03-26T04:34:08.529Z,11.60
2023-03-26T04:36:46.270Z,11.60
2023-03-26T04:39:16.505Z,11.70
2023-03-26T04:42:04.556Z,11.70
2023-03-26T04:44:43.938Z,11.60
2023-03-26T04:47:16.679Z,11.60
2023-03-26T04:49:47.295Z,11.60
2023-03-26T04:52:16.884Z,11.60
2023-03-26T04:55:03.792Z,11.60
2023-03-26T04:57:35.093Z,11.60
2023-03-26T05:00:20.425Z,11.50
2023-03-26T05:02:57.848Z,11.50
2023-03-26T05:05:26.673Z,11.40
2023-03-26T05:07:55.286Z,11.40
2023-03-26T05:10:24.498Z,11.60
2023-03-26T05:12:57.885Z,11.60
2023-03-26T05:15:33.148Z,11.70
2023-03-26T05:18:09.970Z,11.60
2023-03-26T05:20:57.410Z,11.60
2023-03-26T05:23:27.563Z,11.60
2023-03-26T05:26:08.553Z,11.50
2023-03-26T05:28:37.179Z,11.50
2023-03-26T05:31:18.975Z,11.50
2023-03-26T05:33:50.958Z,11.40
2023-03-26T05:36:19.492Z,11.40
2023-03-26T05:39:02.193Z,11.30
2023-03-26T05:41:51.088Z,11.20
2023-03-26T05:44:19.928Z,11.30
2023-03-26T05:46:47.949Z,11.30
2023-03-26T05:49:23.473Z,11.30
2023-03-26T05:51:52.737Z,11.40
2023-03-26T05:54:56.795Z,11.50
2023-03-26T05:57:47.645Z,11.40
2023-03-26T06:00:38.378Z,11.30
2023-03-26T06:03:12.971Z,11.20
2023-03-26T06:06:18.510Z,11.00
2023-03-26T06:09:02.294Z,10.80
2023-03-26T06:11:31.626Z,10.80
2023-03-26T06:13:59.797Z,11.10
2023-03-26T06:16:28.696Z,11.10
2023-03-26T06:19:14.144Z,11.20
2023-03-26T06:21:58.449Z,11.30
2023-03-26T06:24:39.821Z,11.40
2023-03-26T06:27:07.768Z,11.50
2023-03-26T06:29:52.618Z,11.60
2023-03-26T06:32:40.900Z,11.60
2023-03-26T06:35:12.589Z,11.60
2023-03-26T06:37:42.981Z,11.60
2023-03-26T06:40:11.986Z,11.80
2023-03-26T06:43:07.707Z,11.80
2023-03-26T06:45:57.072Z,11.80
2023-03-26T06:48:42.067Z,11.90
2023-03-26T06:51:48.590Z,11.70
2023-03-26T06:54:36.614Z,11.30
2023-03-26T06:57:23.041Z,10.90
2023-03-26T07:00:14.643Z,11.10
2023-03-26T07:03:01.099Z,11.10
2023-03-26T07:05:48.127Z,11.10
2023-03-26T07:08:48.398Z,11.20
2023-03-26T07:11:36.077Z,11.00
2023-03-26T07:14:38.878Z,10.90
2023-03-26T07:17:29.966Z,10.80
2023-03-26T07:20:20.504Z,10.50
2023-03-26T07:22:49.182Z,10.20
2023-03-26T07:25:31.507Z,10.10
2023-03-26T07:28:21.316Z,10.00
2023-03-26T07:31:11.952Z,10.00
2023-03-26T07:33:53.714Z,10.10
2023-03-26T07:36:34.615Z,10.20
2023-03-26T07:39:28.105Z,10.30
2023-03-26T07:42:22.062Z,10.40
2023-03-26T07:45:17.938Z,10.40
2023-03-26T07:48:02.154Z,10.60
2023-03-26T07:51:00.113Z,10.60
2023-03-26T07:53:47.205Z,10.70
2023-03-26T07:56:35.625Z,10.70
2023-03-26T07:59:28.801Z,10.60
2023-03-26T08:02:33.547Z,10.60
2023-03-26T08:05:20.741Z,10.80
2023-03-26T08:08:13.740Z,11.00
2023-03-26T08:11:01.651Z,11.10
2023-03-26T08:13:36.463Z,11.20
2023-03-26T08:16:08.133Z,11.20
2023-03-26T08:18:44.769Z,11.20
2023-03-26T08:21:16.975Z,11.30
2023-03-26T08:23:51.845Z,11.30
2023-03-26T08:26:24.880Z,11.40
2023-03-26T08:28:57.152Z,11.30
2023-03-26T08:31:29.942Z,11.20
2023-03-26T08:33:59.409Z,11.10
2023-03-26T08:36:27.755Z,11.00
2023-03-26T08:38:57.481Z,11.00
2023-03-26T08:41:45.414Z,11.00
2023-03-26T08:44:26.431Z,11.00
2023-03-26T08:47:04.125Z,11.10
2023-03-26T08:49:50.113Z,11.30
2023-03-26T08:52:34.311Z,11.00
2023-03-26T08:55:21.986Z,11.00
2023-03-26T08:58:04.828Z,11.00
2023-03-26T09:00:39.391Z,11.00
2023-03-26T09:03:25.528Z,11.10
2023-03-26T09:06:08.441Z,11.20
2023-03-26T09:08:57.380Z,11.00
2023-03-26T09:11:34.085Z,11.00
2023-03-26T09:14:15.402Z,11.10
2023-03-26T09:16:53.461Z,11.20
2023-03-26T09:19:32.121Z,11.30
2023-03-26T09:22:24.340Z,11.40
2023-03-26T09:25:08.098Z,11.50
2023-03-26T09:27:39.870Z,11.50
2023-03-26T09:30:26.741Z,11.60
2023-03-26T09:33:16.907Z,11.60
2023-03-26T09:35:53.185Z,11.60
2023-03-26T09:38:36.238Z,11.60
2023-03-26T09:41:08.380Z,11.70
2023-03-26T09:43:43.236Z,11.80
2023-03-26T09:46:17.797Z,11.80
2023-03-26T09:49:04.413Z,11.50
2023-03-26T09:51:39.581Z,11.20
2023-03-26T09:54:14.502Z,11.10
2023-03-26T09:56:51.769Z,11.20
2023-03-26T09:59:28.988Z,11.30
2023-03-26T10:02:02.324Z,11.40
2023-03-26T10:04:59.628Z,11.50
2023-03-26T10:07:39.829Z,11.70
2023-03-26T10:10:12.916Z,11.90
2023-03-26T10:12:47.192Z,12.20
2023-03-26T10:15:24.713Z,12.30
2023-03-26T10:18:04.380Z,12.30
2023-03-26T10:20:57.005Z,12.30
2023-03-26T10:23:37.783Z,12.60
2023-03-26T10:26:11.402Z,12.80
2023-03-26T10:28:50.944Z,12.80
2023-03-26T10:31:26.605Z,12.90
2023-03-26T10:34:02.941Z,12.80
2023-03-26T10:36:32.195Z,13.00
2023-03-26T10:39:09.376Z,12.90
2023-03-26T10:41:42.386Z,13.00
2023-03-26T10:44:25.923Z,13.10
2023-03-26T10:47:01.103Z,13.40
2023-03-26T10:49:56.068Z,13.50
2023-03-26T10:52:26.042Z,13.60
2023-03-26T10:54:57.090Z,13.70
2023-03-26T10:57:34.370Z,13.80
2023-03-26T11:00:13.761Z,14.00
2023-03-26T11:02:44.772Z,14.00
2023-03-26T11:05:27.734Z,14.20
2023-03-26T11:08:00.743Z,14.50
2023-03-26T11:10:33.647Z,14.80
2023-03-26T11:13:05.953Z,14.70
2023-03-26T11:15:38.912Z,14.20
2023-03-26T11:18:13.445Z,13.90
2023-03-26T11:20:44.995Z,13.90
2023-03-26T11:23:19.843Z,13.90
2023-03-26T11:25:52.805Z,14.00
2023-03-26T11:28:36.542Z,14.20
2023-03-26T11:31:10.067Z,14.40
2023-03-26T11:33:45.602Z,14.20
2023-03-26T11:36:17.464Z,14.10
2023-03-26T11:38:47.088Z,14.00
2023-03-26T11:41:22.545Z,14.00
2023-03-26T11:43:58.831Z,14.00
2023-03-26T11:46:36.060Z,13.90
2023-03-26T11:49:06.831Z,13.90
2023-03-26T11:51:35.460Z,14.00
2023-03-26T11:54:04.836Z,14.20
2023-03-26T11:56:34.731Z,14.40
2023-03-26T11:59:05.498Z,14.30
2023-03-26T12:01:45.370Z,14.20
2023-03-26T12:04:14.549Z,14.00
2023-03-26T12:06:51.880Z,14.10
2023-03-26T12:09:19.931Z,14.20
2023-03-26T12:11:50.756Z,14.50
2023-03-26T12:14:20.232Z,14.80
2023-03-26T12:16:59.968Z,15.00
2023-03-26T12:19:29.097Z,15.00
2023-03-26T12:21:57.181Z,15.00
2023-03-26T12:24:28.075Z,14.90
2023-03-26T12:27:01.969Z,15.00
2023-03-26T12:29:34.264Z,15.10
2023-03-26T12:32:14.419Z,15.30
2023-03-26T12:34:42.578Z,15.30
2023-03-26T12:37:32.416Z,15.30
2023-03-26T12:40:27.280Z,15.20
2023-03-26T12:44:49.204Z,15.00
2023-03-26T12:45:45.509Z,15.10
2023-03-26T12:48:35.498Z,15.30
2023-03-26T12:51:09.117Z,15.30
2023-03-26T12:53:43.101Z,15.30
2023-03-26T12:56:17.565Z,15.30
2023-03-26T12:58:53.453Z,15.40
2023-03-26T13:01:28.617Z,15.40
2023-03-26T13:04:14.645Z,15.30
2023-03-26T13:06:59.564Z,15.20
2023-03-26T13:09:45.731Z,15.20
2023-03-26T13:12:19.420Z,15.30
2023-03-26T13:14:56.440Z,15.30
2023-03-26T13:17:27.384Z,15.20
2023-03-26T13:20:01.120Z,15.30
2023-03-26T13:22:36.760Z,15.40
2023-03-26T13:25:14.461Z,15.40
2023-03-26T13:27:45.595Z,15.40
2023-03-26T13:30:20.860Z,15.50
2023-03-26T13:32:57.291Z,15.40
2023-03-26T13:35:29.935Z,15.50
2023-03-26T13:38:04.016Z,15.30
2023-03-26T13:40:38.667Z,15.10
2023-03-26T13:43:24.666Z,15.00
2023-03-26T13:45:57.039Z,14.80
2023-03-26T13:48:27.185Z,14.80
2023-03-26T13:51:00.141Z,14.90
2023-03-26T13:53:30.828Z,14.80
2023-03-26T13:56:00.266Z,14.80
2023-03-26T13:58:34.754Z,14.80
2023-03-26T14:01:07.477Z,14.80
2023-03-26T14:03:41.072Z,14.80
2023-03-26T14:06:13.203Z,14.60
2023-03-26T14:08:44.094Z,14.50
2023-03-26T14:11:15.359Z,14.30
2023-03-26T14:13:46.036Z,14.20
2023-03-26T14:16:16.987Z,13.80
2023-03-26T14:18:47.213Z,13.30
2023-03-26T14:21:36.585Z,12.90
2023-03-26T14:24:24.610Z,12.50
2023-03-26T14:27:00.674Z,12.40
2023-03-26T14:29:34.797Z,12.10
2023-03-26T14:32:10.589Z,12.00
2023-03-26T14:34:46.826Z,11.90
2023-03-26T14:37:38.699Z,11.70
2023-03-26T14:40:21.510Z,11.60
2023-03-26T14:42:56.474Z,11.40
2023-03-26T14:45:31.117Z,11.20
2023-03-26T14:48:05.061Z,10.90
2023-03-26T14:50:46.788Z,10.80
2023-03-26T14:53:19.740Z,10.60
2023-03-26T14:56:00.899Z,10.50
2023-03-26T14:58:50.632Z,10.50
2023-03-26T15:01:23.438Z,10.50
2023-03-26T15:04:14.094Z,10.80
2023-03-26T15:07:05.974Z,10.70
2023-03-26T15:09:54.825Z,10.60
2023-03-26T15:12:30.268Z,10.50
2023-03-26T15:15:11.370Z,10.30
2023-03-26T15:17:58.373Z,10.00
2023-03-26T15:20:40.689Z,9.80
2023-03-26T15:23:31.092Z,9.80
2023-03-26T15:26:30.879Z,9.80
2023-03-26T15:29:18.747Z,9.70
2023-03-26T15:31:56.595Z,9.70
2023-03-26T15:34:49.517Z,9.80
2023-03-26T15:37:35.402Z,9.70
2023-03-26T15:40:19.948Z,9.80
2023-03-26T15:42:53.282Z,9.90
2023-03-26T15:45:32.770Z,10.00
2023-03-26T15:48:19.994Z,10.00
2023-03-26T15:50:53.836Z,10.00
2023-03-26T15:53:27.901Z,9.90
2023-03-26T15:56:01.674Z,9.90
2023-03-26T15:58:33.233Z,10.00
2023-03-26T16:01:10.047Z,10.00
2023-03-26T16:03:48.096Z,9.90
2023-03-26T16:06:27.864Z,9.90
2023-03-26T16:09:04.906Z,10.00
2023-03-26T16:11:51.991Z,10.30
2023-03-26T16:14:49.161Z,10.50
2023-03-26T16:18:06.283Z,10.60
2023-03-26T16:21:32.048Z,10.70
2023-03-26T16:24:13.473Z,10.80
2023-03-26T16:26:50.832Z,10.80
2023-03-26T16:29:22.110Z,10.50
2023-03-26T16:32:04.969Z,10.50
2023-03-26T16:34:40.765Z,10.60
2023-03-26T16:37:25.920Z,10.50
2023-03-26T16:39:55.796Z,10.50
2023-03-26T16:42:31.784Z,10.40
2023-03-26T16:45:07.213Z,10.30
2023-03-26T16:47:43.208Z,10.20
2023-03-26T16:50:17.010Z,10.20
2023-03-26T16:52:52.011Z,10.30
2023-03-26T16:55:23.978Z,10.30
2023-03-26T16:57:56.076Z,10.30
2023-03-26T17:00:31.747Z,10.30
2023-03-26T17:03:08.048Z,10.10
2023-03-26T17:05:37.702Z,10.30
2023-03-26T17:08:12.118Z,10.10
2023-03-26T17:10:45.631Z,10.10
2023-03-26T17:13:20.357Z,10.20
2023-03-26T17:15:52.465Z,10.30
2023-03-26T17:18:25.780Z,10.40
2023-03-26T17:20:59.586Z,10.30
2023-03-26T17:23:33.211Z,10.40
2023-03-26T17:26:11.710Z,10.40
2023-03-26T17:28:54.259Z,10.30
2023-03-26T17:31:26.356Z,10.10
2023-03-26T17:33:54.550Z,10.00
2023-03-26T17:36:43.641Z,9.90
2023-03-26T17:39:30.479Z,9.90
2023-03-26T17:42:25.741Z,9.90
2023-03-26T17:44:56.211Z,10.00
2023-03-26T17:47:35.902Z,10.00
2023-03-26T17:50:07.582Z,10.10
2023-03-26T17:52:47.925Z,9.90
2023-03-26T17:55:17.712Z,9.80
2023-03-26T17:57:46.515Z,9.60
2023-03-26T18:00:20.948Z,9.70
2023-03-26T18:02:53.993Z,9.60
2023-03-26T18:05:23.460Z,9.70
2023-03-26T18:08:10.762Z,9.70
2023-03-26T18:10:45.221Z,9.70
2023-03-26T18:13:19.995Z,9.60
2023-03-26T18:15:54.045Z,9.70
2023-03-26T18:18:24.249Z,9.80
2023-03-26T18:23:24.619Z,9.70
2023-03-26T18:25:56.750Z,9.60
2023-03-26T18:28:30.983Z,9.60
2023-03-26T18:31:08.252Z,9.60
2023-03-26T18:33:42.858Z,9.50
2023-03-26T18:36:12.085Z,9.40
2023-03-26T18:38:42.411Z,9.40
2023-03-26T18:41:16.641Z,9.50
2023-03-26T18:43:44.924Z,9.50
2023-03-26T18:46:14.655Z,9.50
2023-03-26T18:48:42.840Z,9.50
2023-03-26T18:51:11.122Z,9.50
2023-03-26T18:53:40.194Z,9.50
2023-03-26T18:56:21.371Z,9.50
2023-03-26T18:58:53.109Z,9.50
2023-03-26T19:01:25.982Z,9.50
2023-03-26T19:03:54.698Z,9.50
2023-03-26T19:06:23.452Z,9.50
2023-03-26T19:08:52.341Z,9.40
2023-03-26T19:11:20.571Z,9.30
2023-03-26T19:13:59.088Z,9.40
2023-03-26T19:16:33.691Z,9.40
2023-03-26T19:19:03.590Z,9.30
2023-03-26T19:21:33.136Z,9.20
2023-03-26T19:24:01.883Z,9.00
2023-03-26T19:26:29.977Z,9.20
2023-03-26T19:29:00.729Z,9.10
2023-03-26T19:31:33.950Z,9.10
2023-03-26T19:34:03.044Z,9.10
2023-03-26T19:36:31.739Z,9.00
2023-03-26T19:39:05.808Z,9.00
2023-03-26T19:41:35.332Z,9.10
2023-03-26T19:44:04.441Z,9.00
2023-03-26T19:46:53.655Z,9.00
2023-03-26T19:49:30.003Z,9.10
2023-03-26T19:52:11.687Z,9.30
2023-03-26T19:54:59.459Z,9.30
2023-03-26T19:57:28.983Z,9.40
2023-03-26T19:59:57.424Z,9.30
2023-03-26T20:02:27.335Z,9.40
2023-03-26T20:04:55.391Z,9.50
2023-03-26T20:07:35.267Z,9.50
2023-03-26T20:10:05.563Z,9.60
2023-03-26T20:12:33.783Z,9.30
2023-03-26T20:15:01.920Z,9.20
2023-03-26T20:17:34.678Z,9.20
2023-03-26T20:20:05.717Z,9.20
2023-03-26T20:22:33.775Z,9.20
2023-03-26T20:25:03.060Z,9.30
2023-03-26T20:27:31.372Z,9.30
2023-03-26T20:30:05.273Z,9.30
2023-03-26T20:32:37.873Z,9.30
2023-03-26T20:35:19.100Z,9.20
2023-03-26T20:38:13.688Z,9.20
2023-03-26T20:40:52.058Z,9.20
2023-03-26T20:43:25.153Z,9.20
2023-03-26T20:46:03.952Z,9.10
2023-03-26T20:48:43.339Z,9.10
2023-03-26T20:51:21.343Z,9.10
2023-03-26T20:53:54.703Z,9.30
2023-03-26T20:56:23.306Z,9.20
2023-03-26T20:59:03.746Z,9.20
2023-03-26T21:01:37.596Z,9.20
2023-03-26T21:04:07.103Z,9.20
2023-03-26T21:06:35.445Z,9.20
2023-03-26T21:09:04.121Z,9.30
2023-03-26T21:11:40.900Z,9.30
2023-03-26T21:14:15.051Z,9.30
2023-03-26T21:16:43.352Z,9.30
2023-03-26T21:19:13.129Z,9.30
2023-03-26T21:21:48.054Z,9.40
2023-03-26T21:24:22.724Z,9.50
2023-03-26T21:26:53.077Z,9.60
2023-03-26T21:29:21.953Z,9.70
2023-03-26T21:31:52.182Z,9.70
2023-03-26T21:34:23.766Z,9.50
2023-03-26T21:36:52.642Z,9.30
2023-03-26T21:39:20.871Z,9.20
2023-03-26T21:42:05.017Z,9.20
2023-03-26T21:44:34.233Z,9.10
2023-03-26T21:47:03.101Z,9.00
2023-03-26T21:49:32.904Z,8.90
2023-03-26T21:52:01.172Z,8.90
2023-03-26T21:54:30.729Z,9.00
2023-03-26T21:57:07.310Z,8.90
2023-03-26T21:59:40.473Z,9.00
2023-03-26T22:02:11.707Z,9.00
2023-03-26T22:04:44.821Z,9.00
2023-03-26T22:07:14.008Z,9.30
2023-03-26T22:09:43.277Z,9.20
2023-03-26T22:12:11.532Z,9.30
2023-03-26T22:14:39.467Z,9.50
2023-03-26T22:17:07.397Z,9.50
2023-03-26T22:19:35.944Z,9.40
2023-03-26T22:22:05.329Z,9.40
2023-03-26T22:24:34.361Z,9.40
2023-03-26T22:27:02.394Z,9.40
2023-03-26T22:29:30.448Z,9.40
2023-03-26T22:31:58.477Z,9.50
2023-03-26T22:34:26.921Z,9.50
2023-03-26T22:36:54.970Z,9.60
2023-03-26T22:39:24.363Z,9.70
2023-03-26T22:41:52.364Z,9.80
2023-03-26T22:44:20.743Z,9.60
2023-03-26T22:46:51.293Z,9.50
2023-03-26T22:49:19.620Z,9.40
2023-03-26T22:51:47.733Z,9.40
2023-03-26T22:54:15.635Z,9.30
2023-03-26T22:56:45.763Z,9.40
2023-03-26T22:59:14.179Z,9.40
2023-03-26T23:01:44.066Z,9.50
2023-03-26T23:04:12.128Z,9.40
2023-03-26T23:06:58.409Z,9.30
2023-03-26T23:09:26.604Z,9.30
2023-03-26T23:11:56.457Z,9.20
2023-03-26T23:14:24.780Z,9.20
2023-03-26T23:16:52.882Z,9.20
2023-03-26T23:19:20.829Z,9.10
2023-03-26T23:21:48.872Z,9.00
2023-03-26T23:24:16.877Z,8.90
2023-03-26T23:26:50.481Z,8.90
2023-03-26T23:29:20.527Z,8.70
2023-03-26T23:31:48.577Z,8.70
2023-03-26T23:34:16.950Z,8.70
2023-03-26T23:36:45.415Z,8.70
2023-03-26T23:39:13.781Z,8.70
2023-03-26T23:41:41.680Z,8.60
2023-03-26T23:44:13.467Z,8.60
2023-03-26T23:46:44.105Z,8.60
2023-03-26T23:49:13.051Z,8.60
2023-03-26T23:51:42.100Z,8.50
2023-03-26T23:54:11.653Z,8.50
2023-03-26T23:56:39.883Z,8.50
2023-03-26T23:59:08.333Z,8.60
